sensor_id;sensor_type;location;lat;lon;timestamp;pressure;altitude;pressure_sealevel;temperature;humidity
27144;BME280;14672;50.250;8.312;2023-09-12T00:02:07;98474.53;;;22.36;64.79
27144;BME280;14672;50.250;8.312;2023-09-12T00:04:35;98471.66;;;22.36;64.87
27144;BME280;14672;50.250;8.312;2023-09-12T00:07:00;98465.06;;;22.36;65.30
27144;BME280;14672;50.250;8.312;2023-09-12T00:09:26;98460.16;;;22.31;64.99
27144;BME280;14672;50.250;8.312;2023-09-12T00:11:53;98460.72;;;22.29;64.97
27144;BME280;14672;50.250;8.312;2023-09-12T00:14:19;98461.25;;;22.28;64.91
27144;BME280;14672;50.250;8.312;2023-09-12T00:16:45;98457.34;;;22.25;65.50
27144;BME280;14672;50.250;8.312;2023-09-12T00:19:12;98449.44;;;22.26;65.62
27144;BME280;14672;50.250;8.312;2023-09-12T00:21:38;98450.69;;;22.30;65.33
27144;BME280;14672;50.250;8.312;2023-09-12T00:24:04;98445.34;;;22.34;64.90
27144;BME280;14672;50.250;8.312;2023-09-12T00:26:29;98449.69;;;22.28;65.12
27144;BME280;14672;50.250;8.312;2023-09-12T00:28:56;98451.72;;;22.14;65.24
27144;BME280;14672;50.250;8.312;2023-09-12T00:31:22;98453.53;;;22.17;65.30
27144;BME280;14672;50.250;8.312;2023-09-12T00:33:48;98440.38;;;22.16;64.96
27144;BME280;14672;50.250;8.312;2023-09-12T00:36:14;98447.28;;;22.13;65.46
27144;BME280;14672;50.250;8.312;2023-09-12T00:38:39;98453.28;;;22.15;65.23
27144;BME280;14672;50.250;8.312;2023-09-12T00:41:05;98448.81;;;22.14;65.12
27144;BME280;14672;50.250;8.312;2023-09-12T00:43:31;98445.25;;;22.08;65.11
27144;BME280;14672;50.250;8.312;2023-09-12T00:45:56;98441.97;;;22.17;65.12
27144;BME280;14672;50.250;8.312;2023-09-12T00:48:22;98443.34;;;22.11;64.99
27144;BME280;14672;50.250;8.312;2023-09-12T00:50:50;98437.66;;;22.05;65.07
27144;BME280;14672;50.250;8.312;2023-09-12T00:53:18;98445.31;;;22.02;65.37
27144;BME280;14672;50.250;8.312;2023-09-12T00:55:54;98457.44;;;22.01;65.27
27144;BME280;14672;50.250;8.312;2023-09-12T00:58:23;98453.34;;;21.91;65.51
27144;BME280;14672;50.250;8.312;2023-09-12T01:00:50;98461.53;;;21.87;65.21
27144;BME280;14672;50.250;8.312;2023-09-12T01:03:18;98459.75;;;21.84;65.44
27144;BME280;14672;50.250;8.312;2023-09-12T01:05:44;98455.28;;;21.83;65.64
27144;BME280;14672;50.250;8.312;2023-09-12T01:08:11;98457.31;;;21.69;66.18
27144;BME280;14672;50.250;8.312;2023-09-12T01:10:37;98461.44;;;21.74;66.47
27144;BME280;14672;50.250;8.312;2023-09-12T01:13:03;98459.19;;;21.67;65.85
27144;BME280;14672;50.250;8.312;2023-09-12T01:15:29;98450.59;;;21.61;66.54
27144;BME280;14672;50.250;8.312;2023-09-12T01:17:56;98460.28;;;21.64;66.36
27144;BME280;14672;50.250;8.312;2023-09-12T01:20:32;98453.31;;;21.53;67.54
27144;BME280;14672;50.250;8.312;2023-09-12T01:23:39;98457.66;;;21.41;67.51
27144;BME280;14672;50.250;8.312;2023-09-12T01:26:41;98460.38;;;21.34;67.26
27144;BME280;14672;50.250;8.312;2023-09-12T01:29:12;98459.81;;;21.35;67.20
27144;BME280;14672;50.250;8.312;2023-09-12T01:31:39;98465.75;;;21.24;67.88
27144;BME280;14672;50.250;8.312;2023-09-12T01:34:12;98462.59;;;21.22;67.43
27144;BME280;14672;50.250;8.312;2023-09-12T01:36:38;98461.28;;;21.23;67.40
27144;BME280;14672;50.250;8.312;2023-09-12T01:39:04;98449.97;;;21.25;67.58
27144;BME280;14672;50.250;8.312;2023-09-12T01:41:34;98444.19;;;21.25;67.95
27144;BME280;14672;50.250;8.312;2023-09-12T01:44:02;98442.94;;;21.21;67.49
27144;BME280;14672;50.250;8.312;2023-09-12T01:46:29;98445.03;;;21.20;67.44
27144;BME280;14672;50.250;8.312;2023-09-12T01:48:57;98445.25;;;21.22;67.05
27144;BME280;14672;50.250;8.312;2023-09-12T01:51:24;98448.81;;;21.09;67.37
27144;BME280;14672;50.250;8.312;2023-09-12T01:53:51;98449.69;;;20.99;67.82
27144;BME280;14672;50.250;8.312;2023-09-12T01:56:19;98452.34;;;20.97;67.69
27144;BME280;14672;50.250;8.312;2023-09-12T01:58:48;98450.28;;;20.92;68.33
27144;BME280;14672;50.250;8.312;2023-09-12T02:01:14;98447.94;;;20.90;68.17
27144;BME280;14672;50.250;8.312;2023-09-12T02:03:40;98450.59;;;20.88;68.65
27144;BME280;14672;50.250;8.312;2023-09-12T02:06:06;98445.63;;;20.83;68.55
27144;BME280;14672;50.250;8.312;2023-09-12T02:08:31;98449.94;;;20.71;68.55
27144;BME280;14672;50.250;8.312;2023-09-12T02:10:57;98444.06;;;20.82;68.10
27144;BME280;14672;50.250;8.312;2023-09-12T02:13:23;98448.44;;;20.65;68.41
27144;BME280;14672;50.250;8.312;2023-09-12T02:15:59;98450.03;;;20.66;68.40
27144;BME280;14672;50.250;8.312;2023-09-12T02:18:25;98458.75;;;20.54;68.05
27144;BME280;14672;50.250;8.312;2023-09-12T02:20:51;98442.41;;;20.62;67.32
27144;BME280;14672;50.250;8.312;2023-09-12T02:23:16;98453.03;;;20.49;68.06
27144;BME280;14672;50.250;8.312;2023-09-12T02:25:42;98447.75;;;20.53;67.83
27144;BME280;14672;50.250;8.312;2023-09-12T02:28:08;98451.19;;;20.51;68.39
27144;BME280;14672;50.250;8.312;2023-09-12T02:30:34;98444.13;;;20.47;68.32
27144;BME280;14672;50.250;8.312;2023-09-12T02:33:03;98439.09;;;20.53;67.77
27144;BME280;14672;50.250;8.312;2023-09-12T02:35:29;98436.03;;;20.45;68.19
27144;BME280;14672;50.250;8.312;2023-09-12T02:37:55;98433.47;;;20.36;68.41
27144;BME280;14672;50.250;8.312;2023-09-12T02:40:20;98435.28;;;20.39;68.85
27144;BME280;14672;50.250;8.312;2023-09-12T02:42:46;98438.72;;;20.38;69.12
27144;BME280;14672;50.250;8.312;2023-09-12T02:45:12;98436.84;;;20.40;68.59
27144;BME280;14672;50.250;8.312;2023-09-12T02:47:38;98443.34;;;20.46;68.36
27144;BME280;14672;50.250;8.312;2023-09-12T02:50:04;98445.69;;;20.48;68.35
27144;BME280;14672;50.250;8.312;2023-09-12T02:52:29;98443.94;;;20.39;68.22
27144;BME280;14672;50.250;8.312;2023-09-12T02:54:55;98447.94;;;20.25;69.15
27144;BME280;14672;50.250;8.312;2023-09-12T02:57:21;98446.09;;;20.33;69.04
27144;BME280;14672;50.250;8.312;2023-09-12T02:59:47;98439.53;;;20.27;69.47
27144;BME280;14672;50.250;8.312;2023-09-12T03:02:13;98440.38;;;20.22;69.76
27144;BME280;14672;50.250;8.312;2023-09-12T03:04:38;98431.22;;;20.18;69.57
27144;BME280;14672;50.250;8.312;2023-09-12T03:07:04;98426.47;;;20.21;69.43
27144;BME280;14672;50.250;8.312;2023-09-12T03:09:33;98427.25;;;20.21;69.52
27144;BME280;14672;50.250;8.312;2023-09-12T03:12:01;98415.97;;;20.23;69.69
27144;BME280;14672;50.250;8.312;2023-09-12T03:14:28;98417.78;;;20.26;70.27
27144;BME280;14672;50.250;8.312;2023-09-12T03:16:54;98414.09;;;20.31;69.33
27144;BME280;14672;50.250;8.312;2023-09-12T03:19:20;98416.75;;;20.29;69.64
27144;BME280;14672;50.250;8.312;2023-09-12T03:21:45;98422.72;;;20.37;69.18
27144;BME280;14672;50.250;8.312;2023-09-12T03:24:11;98426.97;;;20.30;69.11
27144;BME280;14672;50.250;8.312;2023-09-12T03:26:37;98421.50;;;20.21;69.33
27144;BME280;14672;50.250;8.312;2023-09-12T03:29:04;98420.72;;;20.21;69.31
27144;BME280;14672;50.250;8.312;2023-09-12T03:31:30;98423.28;;;20.24;69.99
27144;BME280;14672;50.250;8.312;2023-09-12T03:33:56;98418.59;;;20.21;69.75
27144;BME280;14672;50.250;8.312;2023-09-12T03:36:22;98415.72;;;20.21;69.73
27144;BME280;14672;50.250;8.312;2023-09-12T03:38:47;98418.34;;;20.19;69.89
27144;BME280;14672;50.250;8.312;2023-09-12T03:41:13;98412.28;;;20.23;70.12
27144;BME280;14672;50.250;8.312;2023-09-12T03:43:39;98406.50;;;20.23;70.22
27144;BME280;14672;50.250;8.312;2023-09-12T03:46:05;98409.38;;;20.34;70.02
27144;BME280;14672;50.250;8.312;2023-09-12T03:48:30;98400.41;;;20.37;69.91
27144;BME280;14672;50.250;8.312;2023-09-12T03:50:57;98407.69;;;20.44;69.68
27144;BME280;14672;50.250;8.312;2023-09-12T03:53:23;98397.16;;;20.46;69.35
27144;BME280;14672;50.250;8.312;2023-09-12T03:55:49;98402.22;;;20.40;70.13
27144;BME280;14672;50.250;8.312;2023-09-12T03:58:15;98396.19;;;20.38;69.90
27144;BME280;14672;50.250;8.312;2023-09-12T04:00:40;98399.84;;;20.39;70.03
27144;BME280;14672;50.250;8.312;2023-09-12T04:03:06;98400.16;;;20.35;70.47
27144;BME280;14672;50.250;8.312;2023-09-12T04:05:32;98407.50;;;20.36;70.73
27144;BME280;14672;50.250;8.312;2023-09-12T04:07:58;98405.41;;;20.37;70.72
27144;BME280;14672;50.250;8.312;2023-09-12T04:10:23;98404.81;;;20.44;70.60
27144;BME280;14672;50.250;8.312;2023-09-12T04:12:49;98415.56;;;20.43;70.51
27144;BME280;14672;50.250;8.312;2023-09-12T04:15:15;98418.72;;;20.45;70.54
27144;BME280;14672;50.250;8.312;2023-09-12T04:17:41;98416.16;;;20.36;70.80
27144;BME280;14672;50.250;8.312;2023-09-12T04:20:07;98414.00;;;20.42;70.66
27144;BME280;14672;50.250;8.312;2023-09-12T04:22:33;98409.97;;;20.51;70.23
27144;BME280;14672;50.250;8.312;2023-09-12T04:24:59;98418.13;;;20.52;70.08
27144;BME280;14672;50.250;8.312;2023-09-12T04:27:24;98425.25;;;20.46;70.00
27144;BME280;14672;50.250;8.312;2023-09-12T04:29:50;98424.47;;;20.45;70.17
27144;BME280;14672;50.250;8.312;2023-09-12T04:32:16;98419.69;;;20.53;69.87
27144;BME280;14672;50.250;8.312;2023-09-12T04:34:49;98433.13;;;20.45;70.39
27144;BME280;14672;50.250;8.312;2023-09-12T04:37:15;98430.28;;;20.40;70.74
27144;BME280;14672;50.250;8.312;2023-09-12T04:39:41;98427.84;;;20.49;70.39
27144;BME280;14672;50.250;8.312;2023-09-12T04:42:06;98424.72;;;20.47;71.00
27144;BME280;14672;50.250;8.312;2023-09-12T04:44:36;98429.47;;;20.45;71.02
27144;BME280;14672;50.250;8.312;2023-09-12T04:47:02;98424.41;;;20.51;70.64
27144;BME280;14672;50.250;8.312;2023-09-12T04:49:28;98423.84;;;20.58;70.54
27144;BME280;14672;50.250;8.312;2023-09-12T04:51:54;98415.19;;;20.58;70.53
27144;BME280;14672;50.250;8.312;2023-09-12T04:54:20;98411.75;;;20.59;70.55
27144;BME280;14672;50.250;8.312;2023-09-12T04:56:45;98410.44;;;20.60;70.58
27144;BME280;14672;50.250;8.312;2023-09-12T04:59:11;98413.31;;;20.60;70.53
27144;BME280;14672;50.250;8.312;2023-09-12T05:01:37;98406.75;;;20.60;70.66
27144;BME280;14672;50.250;8.312;2023-09-12T05:04:03;98402.75;;;20.69;70.48
27144;BME280;14672;50.250;8.312;2023-09-12T05:06:29;98402.25;;;20.65;71.03
27144;BME280;14672;50.250;8.312;2023-09-12T05:08:55;98399.22;;;20.81;70.23
27144;BME280;14672;50.250;8.312;2023-09-12T05:11:22;98391.53;;;20.89;70.26
27144;BME280;14672;50.250;8.312;2023-09-12T05:13:49;98402.41;;;21.02;69.55
27144;BME280;14672;50.250;8.312;2023-09-12T05:16:15;98399.03;;;20.98;69.77
27144;BME280;14672;50.250;8.312;2023-09-12T05:18:41;98401.44;;;20.94;70.26
27144;BME280;14672;50.250;8.312;2023-09-12T05:21:07;98410.88;;;20.94;69.93
27144;BME280;14672;50.250;8.312;2023-09-12T05:23:32;98414.41;;;21.06;69.62
27144;BME280;14672;50.250;8.312;2023-09-12T05:25:58;98412.28;;;21.12;69.99
27144;BME280;14672;50.250;8.312;2023-09-12T05:28:24;98414.13;;;21.09;70.35
27144;BME280;14672;50.250;8.312;2023-09-12T05:30:50;98422.53;;;21.13;69.96
27144;BME280;14672;50.250;8.312;2023-09-12T05:33:16;98422.75;;;21.15;69.80
27144;BME280;14672;50.250;8.312;2023-09-12T05:35:42;98412.25;;;21.18;69.68
27144;BME280;14672;50.250;8.312;2023-09-12T05:38:10;98417.78;;;21.10;69.88
27144;BME280;14672;50.250;8.312;2023-09-12T05:40:36;98408.38;;;21.09;69.97
27144;BME280;14672;50.250;8.312;2023-09-12T05:43:01;98411.69;;;21.19;69.81
27144;BME280;14672;50.250;8.312;2023-09-12T05:45:28;98411.69;;;21.19;69.51
27144;BME280;14672;50.250;8.312;2023-09-12T05:47:56;98417.47;;;21.19;69.89
27144;BME280;14672;50.250;8.312;2023-09-12T05:50:22;98418.56;;;21.16;70.04
27144;BME280;14672;50.250;8.312;2023-09-12T05:52:48;98412.81;;;21.35;69.67
27144;BME280;14672;50.250;8.312;2023-09-12T05:55:14;98415.34;;;21.20;70.46
27144;BME280;14672;50.250;8.312;2023-09-12T05:57:40;98409.38;;;21.36;70.06
27144;BME280;14672;50.250;8.312;2023-09-12T06:00:07;98413.84;;;21.37;70.28
27144;BME280;14672;50.250;8.312;2023-09-12T06:02:38;98417.97;;;21.42;69.23
27144;BME280;14672;50.250;8.312;2023-09-12T06:05:04;98420.47;;;21.32;69.54
27144;BME280;14672;50.250;8.312;2023-09-12T06:07:34;98418.63;;;21.53;68.87
27144;BME280;14672;50.250;8.312;2023-09-12T06:10:00;98420.78;;;21.47;69.44
27144;BME280;14672;50.250;8.312;2023-09-12T06:12:26;98421.28;;;21.51;69.76
27144;BME280;14672;50.250;8.312;2023-09-12T06:14:52;98420.91;;;21.61;69.46
27144;BME280;14672;50.250;8.312;2023-09-12T06:17:20;98421.69;;;21.61;69.78
27144;BME280;14672;50.250;8.312;2023-09-12T06:19:47;98416.13;;;21.63;69.53
27144;BME280;14672;50.250;8.312;2023-09-12T06:22:15;98414.50;;;21.68;69.55
27144;BME280;14672;50.250;8.312;2023-09-12T06:24:43;98426.38;;;21.64;69.26
27144;BME280;14672;50.250;8.312;2023-09-12T06:27:09;98420.75;;;21.72;68.66
27144;BME280;14672;50.250;8.312;2023-09-12T06:29:38;98419.59;;;21.80;68.72
27144;BME280;14672;50.250;8.312;2023-09-12T06:32:04;98423.78;;;21.79;68.39
27144;BME280;14672;50.250;8.312;2023-09-12T06:34:30;98427.22;;;21.78;68.64
27144;BME280;14672;50.250;8.312;2023-09-12T06:36:55;98420.59;;;21.83;68.72
27144;BME280;14672;50.250;8.312;2023-09-12T06:39:21;98423.47;;;21.83;68.71
27144;BME280;14672;50.250;8.312;2023-09-12T06:41:48;98420.44;;;21.75;69.65
27144;BME280;14672;50.250;8.312;2023-09-12T06:44:14;98422.84;;;21.90;68.80
27144;BME280;14672;50.250;8.312;2023-09-12T06:46:39;98434.16;;;21.93;69.00
27144;BME280;14672;50.250;8.312;2023-09-12T06:49:05;98427.81;;;21.95;68.91
27144;BME280;14672;50.250;8.312;2023-09-12T06:51:31;98416.16;;;22.00;69.15
27144;BME280;14672;50.250;8.312;2023-09-12T06:53:57;98413.75;;;22.05;68.70
27144;BME280;14672;50.250;8.312;2023-09-12T06:56:23;98413.50;;;22.02;68.82
27144;BME280;14672;50.250;8.312;2023-09-12T06:58:49;98410.91;;;21.99;69.36
27144;BME280;14672;50.250;8.312;2023-09-12T07:01:15;98413.50;;;22.02;69.40
27144;BME280;14672;50.250;8.312;2023-09-12T07:03:40;98418.81;;;22.17;68.03
27144;BME280;14672;50.250;8.312;2023-09-12T07:06:06;98426.13;;;22.37;67.30
27144;BME280;14672;50.250;8.312;2023-09-12T07:08:33;98432.00;;;22.31;67.66
27144;BME280;14672;50.250;8.312;2023-09-12T07:10:59;98425.81;;;22.40;67.19
27144;BME280;14672;50.250;8.312;2023-09-12T07:13:32;98433.59;;;22.45;67.36
27144;BME280;14672;50.250;8.312;2023-09-12T07:15:58;98426.16;;;22.50;67.63
27144;BME280;14672;50.250;8.312;2023-09-12T07:18:24;98428.72;;;22.54;67.42
27144;BME280;14672;50.250;8.312;2023-09-12T07:21:01;98422.97;;;22.67;67.08
27144;BME280;14672;50.250;8.312;2023-09-12T07:23:27;98423.47;;;22.71;67.67
27144;BME280;14672;50.250;8.312;2023-09-12T07:25:55;98426.94;;;22.82;67.27
27144;BME280;14672;50.250;8.312;2023-09-12T07:28:24;98412.81;;;22.92;66.64
27144;BME280;14672;50.250;8.312;2023-09-12T07:30:49;98411.59;;;23.01;66.42
27144;BME280;14672;50.250;8.312;2023-09-12T07:33:15;98409.47;;;23.01;65.79
27144;BME280;14672;50.250;8.312;2023-09-12T07:35:41;98418.19;;;23.14;65.87
27144;BME280;14672;50.250;8.312;2023-09-12T07:38:07;98414.84;;;23.23;64.44
27144;BME280;14672;50.250;8.312;2023-09-12T07:40:32;98415.94;;;23.33;63.94
27144;BME280;14672;50.250;8.312;2023-09-12T07:42:58;98420.53;;;23.42;64.28
27144;BME280;14672;50.250;8.312;2023-09-12T07:45:24;98424.25;;;23.56;64.06
27144;BME280;14672;50.250;8.312;2023-09-12T07:47:50;98416.97;;;23.62;63.72
27144;BME280;14672;50.250;8.312;2023-09-12T07:50:16;98411.69;;;23.74;63.18
27144;BME280;14672;50.250;8.312;2023-09-12T07:52:42;98407.91;;;23.79;63.30
27144;BME280;14672;50.250;8.312;2023-09-12T07:55:08;98410.34;;;23.88;62.71
27144;BME280;14672;50.250;8.312;2023-09-12T07:57:34;98416.69;;;24.00;62.63
27144;BME280;14672;50.250;8.312;2023-09-12T08:00:03;98413.28;;;24.09;62.37
27144;BME280;14672;50.250;8.312;2023-09-12T08:02:31;98416.31;;;24.16;62.63
27144;BME280;14672;50.250;8.312;2023-09-12T08:04:57;98418.53;;;24.23;62.42
27144;BME280;14672;50.250;8.312;2023-09-12T08:07:23;98424.41;;;24.31;62.26
27144;BME280;14672;50.250;8.312;2023-09-12T08:10:00;98417.53;;;24.42;61.34
27144;BME280;14672;50.250;8.312;2023-09-12T08:12:27;98420.44;;;24.42;62.32
27144;BME280;14672;50.250;8.312;2023-09-12T08:14:54;98417.84;;;24.51;61.40
27144;BME280;14672;50.250;8.312;2023-09-12T08:17:21;98434.00;;;24.60;60.48
27144;BME280;14672;50.250;8.312;2023-09-12T08:19:47;98414.53;;;24.68;61.16
27144;BME280;14672;50.250;8.312;2023-09-12T08:22:13;98425.34;;;24.67;61.37
27144;BME280;14672;50.250;8.312;2023-09-12T08:24:39;98422.53;;;24.75;61.07
27144;BME280;14672;50.250;8.312;2023-09-12T08:27:06;98419.44;;;24.80;60.98
27144;BME280;14672;50.250;8.312;2023-09-12T08:29:34;98419.56;;;24.88;60.70
27144;BME280;14672;50.250;8.312;2023-09-12T08:32:01;98414.50;;;24.89;60.57
27144;BME280;14672;50.250;8.312;2023-09-12T08:34:27;98411.47;;;24.94;60.17
27144;BME280;14672;50.250;8.312;2023-09-12T08:36:53;98407.84;;;25.01;59.92
27144;BME280;14672;50.250;8.312;2023-09-12T08:39:27;98412.72;;;25.06;60.43
27144;BME280;14672;50.250;8.312;2023-09-12T08:41:53;98410.44;;;25.12;60.66
27144;BME280;14672;50.250;8.312;2023-09-12T08:44:21;98413.19;;;25.18;59.85
27144;BME280;14672;50.250;8.312;2023-09-12T08:46:47;98411.69;;;25.24;59.34
27144;BME280;14672;50.250;8.312;2023-09-12T08:49:14;98413.66;;;25.30;59.40
27144;BME280;14672;50.250;8.312;2023-09-12T08:51:41;98426.13;;;25.38;59.74
27144;BME280;14672;50.250;8.312;2023-09-12T08:54:08;98421.53;;;25.50;58.45
27144;BME280;14672;50.250;8.312;2023-09-12T08:56:41;98417.91;;;25.57;59.31
27144;BME280;14672;50.250;8.312;2023-09-12T08:59:10;98415.66;;;25.63;60.04
27144;BME280;14672;50.250;8.312;2023-09-12T09:01:36;98417.41;;;25.66;60.46
27144;BME280;14672;50.250;8.312;2023-09-12T09:04:03;98419.78;;;25.75;59.97
27144;BME280;14672;50.250;8.312;2023-09-12T09:06:31;98417.47;;;25.81;59.93
27144;BME280;14672;50.250;8.312;2023-09-12T09:09:00;98414.59;;;25.89;58.99
27144;BME280;14672;50.250;8.312;2023-09-12T09:11:25;98416.97;;;25.98;59.16
27144;BME280;14672;50.250;8.312;2023-09-12T09:13:54;98417.19;;;26.07;59.25
27144;BME280;14672;50.250;8.312;2023-09-12T09:16:20;98413.72;;;26.16;59.11
27144;BME280;14672;50.250;8.312;2023-09-12T09:19:05;98416.28;;;26.28;59.40
27144;BME280;14672;50.250;8.312;2023-09-12T09:21:37;98412.25;;;26.38;59.23
27144;BME280;14672;50.250;8.312;2023-09-12T09:24:14;98409.53;;;26.48;58.30
27144;BME280;14672;50.250;8.312;2023-09-12T09:26:49;98411.50;;;26.60;58.75
27144;BME280;14672;50.250;8.312;2023-09-12T09:29:26;98415.41;;;26.71;57.91
27144;BME280;14672;50.250;8.312;2023-09-12T09:31:52;98411.53;;;26.76;55.65
27144;BME280;14672;50.250;8.312;2023-09-12T09:34:20;98419.34;;;26.88;55.46
27144;BME280;14672;50.250;8.312;2023-09-12T09:36:55;98418.19;;;27.06;54.46
27144;BME280;14672;50.250;8.312;2023-09-12T09:39:27;98408.81;;;27.16;53.96
27144;BME280;14672;50.250;8.312;2023-09-12T09:41:57;98399.69;;;27.27;53.58
27144;BME280;14672;50.250;8.312;2023-09-12T09:44:26;98400.44;;;27.35;53.01
27144;BME280;14672;50.250;8.312;2023-09-12T09:47:00;98404.16;;;27.50;52.90
27144;BME280;14672;50.250;8.312;2023-09-12T09:49:31;98409.53;;;27.69;51.63
27144;BME280;14672;50.250;8.312;2023-09-12T09:51:56;98404.03;;;27.81;51.68
27144;BME280;14672;50.250;8.312;2023-09-12T09:54:25;98399.78;;;27.74;50.30
27144;BME280;14672;50.250;8.312;2023-09-12T09:56:56;98395.78;;;28.10;49.50
27144;BME280;14672;50.250;8.312;2023-09-12T09:59:24;98399.91;;;28.31;49.29
27144;BME280;14672;50.250;8.312;2023-09-12T10:01:59;98398.50;;;28.72;47.92
27144;BME280;14672;50.250;8.312;2023-09-12T10:04:28;98393.81;;;29.19;46.89
27144;BME280;14672;50.250;8.312;2023-09-12T10:06:57;98390.53;;;30.08;45.61
27144;BME280;14672;50.250;8.312;2023-09-12T10:09:27;98384.75;;;30.71;44.21
27144;BME280;14672;50.250;8.312;2023-09-12T10:11:55;98387.41;;;31.23;43.16
27144;BME280;14672;50.250;8.312;2023-09-12T10:14:23;98379.78;;;31.66;42.03
27144;BME280;14672;50.250;8.312;2023-09-12T10:17:02;98379.78;;;31.66;41.75
27144;BME280;14672;50.250;8.312;2023-09-12T10:19:50;98381.94;;;31.56;42.51
27144;BME280;14672;50.250;8.312;2023-09-12T10:22:31;98378.63;;;31.42;42.43
27144;BME280;14672;50.250;8.312;2023-09-12T10:24:59;98372.97;;;31.63;42.49
27144;BME280;14672;50.250;8.312;2023-09-12T10:27:25;98375.13;;;31.53;42.29
27144;BME280;14672;50.250;8.312;2023-09-12T10:29:51;98376.03;;;31.37;43.26
27144;BME280;14672;50.250;8.312;2023-09-12T10:32:19;98376.22;;;31.58;42.69
27144;BME280;14672;50.250;8.312;2023-09-12T10:34:49;98376.78;;;31.37;43.10
27144;BME280;14672;50.250;8.312;2023-09-12T10:37:19;98372.00;;;31.51;42.91
27144;BME280;14672;50.250;8.312;2023-09-12T10:39:48;98365.81;;;31.38;43.57
27144;BME280;14672;50.250;8.312;2023-09-12T10:42:16;98366.50;;;31.65;43.43
27144;BME280;14672;50.250;8.312;2023-09-12T10:44:44;98365.50;;;31.43;43.47
27144;BME280;14672;50.250;8.312;2023-09-12T10:47:13;98363.53;;;31.55;43.21
27144;BME280;14672;50.250;8.312;2023-09-12T10:49:39;98356.41;;;31.78;43.12
27144;BME280;14672;50.250;8.312;2023-09-12T10:52:08;98355.66;;;31.77;43.38
27144;BME280;14672;50.250;8.312;2023-09-12T10:54:39;98361.09;;;31.81;42.73
27144;BME280;14672;50.250;8.312;2023-09-12T10:57:11;98352.09;;;31.79;41.60
27144;BME280;14672;50.250;8.312;2023-09-12T11:02:40;98344.66;;;32.16;42.40
27144;BME280;14672;50.250;8.312;2023-09-12T11:08:00;98338.13;;;32.27;41.51
27144;BME280;14672;50.250;8.312;2023-09-12T11:10:27;98346.50;;;32.21;41.91
27144;BME280;14672;50.250;8.312;2023-09-12T11:12:56;98348.03;;;32.22;41.82
27144;BME280;14672;50.250;8.312;2023-09-12T11:15:27;98350.50;;;32.35;41.46
27144;BME280;14672;50.250;8.312;2023-09-12T11:18:04;98358.81;;;32.48;42.04
27144;BME280;14672;50.250;8.312;2023-09-12T11:21:09;98353.84;;;32.61;41.92
27144;BME280;14672;50.250;8.312;2023-09-12T11:23:34;98352.44;;;32.62;42.00
27144;BME280;14672;50.250;8.312;2023-09-12T11:26:07;98351.03;;;32.72;42.22
27144;BME280;14672;50.250;8.312;2023-09-12T11:28:36;98346.53;;;32.71;42.46
27144;BME280;14672;50.250;8.312;2023-09-12T11:31:02;98345.75;;;32.71;41.96
27144;BME280;14672;50.250;8.312;2023-09-12T11:33:28;98358.69;;;32.87;41.58
27144;BME280;14672;50.250;8.312;2023-09-12T11:35:54;98364.91;;;32.81;41.37
27144;BME280;14672;50.250;8.312;2023-09-12T11:38:28;98364.78;;;32.70;42.11
27144;BME280;14672;50.250;8.312;2023-09-12T11:40:55;98352.59;;;32.54;41.96
27144;BME280;14672;50.250;8.312;2023-09-12T11:43:26;98360.22;;;32.38;43.47
27144;BME280;14672;50.250;8.312;2023-09-12T11:45:55;98368.19;;;31.97;43.55
27144;BME280;14672;50.250;8.312;2023-09-12T11:48:21;98367.38;;;32.06;44.75
27144;BME280;14672;50.250;8.312;2023-09-12T11:50:53;98362.28;;;32.06;44.35
27144;BME280;14672;50.250;8.312;2023-09-12T11:53:22;98369.88;;;32.09;45.48
27144;BME280;14672;50.250;8.312;2023-09-12T11:55:57;98375.91;;;32.02;44.77
27144;BME280;14672;50.250;8.312;2023-09-12T11:58:25;98367.06;;;32.02;44.64
27144;BME280;14672;50.250;8.312;2023-09-12T12:00:56;98374.38;;;32.20;44.01
27144;BME280;14672;50.250;8.312;2023-09-12T12:03:24;98368.72;;;32.43;45.20
27144;BME280;14672;50.250;8.312;2023-09-12T12:05:53;98374.91;;;32.47;44.17
27144;BME280;14672;50.250;8.312;2023-09-12T12:08:19;98368.19;;;32.76;44.96
27144;BME280;14672;50.250;8.312;2023-09-12T12:10:53;98373.81;;;32.93;44.02
27144;BME280;14672;50.250;8.312;2023-09-12T12:13:21;98367.00;;;33.00;43.66
27144;BME280;14672;50.250;8.312;2023-09-12T12:15:47;98359.34;;;33.06;43.74
27144;BME280;14672;50.250;8.312;2023-09-12T12:18:13;98371.03;;;32.95;42.80
27144;BME280;14672;50.250;8.312;2023-09-12T12:20:42;98367.94;;;32.93;43.93
27144;BME280;14672;50.250;8.312;2023-09-12T12:23:08;98365.84;;;32.84;43.92
27144;BME280;14672;50.250;8.312;2023-09-12T12:25:35;98371.44;;;32.80;43.77
27144;BME280;14672;50.250;8.312;2023-09-12T12:28:02;98362.81;;;32.63;43.66
27144;BME280;14672;50.250;8.312;2023-09-12T12:30:33;98365.75;;;32.53;43.91
27144;BME280;14672;50.250;8.312;2023-09-12T12:33:09;98365.63;;;32.41;44.43
27144;BME280;14672;50.250;8.312;2023-09-12T12:35:35;98356.50;;;32.37;44.32
27144;BME280;14672;50.250;8.312;2023-09-12T12:38:02;98355.13;;;32.38;44.48
27144;BME280;14672;50.250;8.312;2023-09-12T12:40:28;98350.16;;;32.41;44.42
27144;BME280;14672;50.250;8.312;2023-09-12T12:42:54;98348.00;;;32.41;44.34
27144;BME280;14672;50.250;8.312;2023-09-12T12:45:23;98346.16;;;32.36;44.24
27144;BME280;14672;50.250;8.312;2023-09-12T12:48:00;98346.16;;;32.36;44.95
27144;BME280;14672;50.250;8.312;2023-09-12T12:50:26;98348.94;;;32.34;44.69
27144;BME280;14672;50.250;8.312;2023-09-12T12:52:52;98349.91;;;32.27;44.90
27144;BME280;14672;50.250;8.312;2023-09-12T12:55:21;98348.00;;;32.41;43.99
27144;BME280;14672;50.250;8.312;2023-09-12T12:57:48;98344.94;;;32.30;44.12
27144;BME280;14672;50.250;8.312;2023-09-12T13:00:16;98349.13;;;32.17;44.93
27144;BME280;14672;50.250;8.312;2023-09-12T13:02:44;98349.91;;;32.27;44.85
27144;BME280;14672;50.250;8.312;2023-09-12T13:05:30;98354.22;;;32.26;44.62
27144;BME280;14672;50.250;8.312;2023-09-12T13:07:57;98347.44;;;32.14;44.67
27144;BME280;14672;50.250;8.312;2023-09-12T13:10:23;98339.25;;;32.12;45.10